Terminal Aerodrome Forecast
Issued by NWS

Home | Current Version | Previous Version | Text Only | Print | Product List | Glossary On
Versions: 1 2 3 4 5 6 7 8 9 10 11 12 13 14 15 16 17
000
FTUS42 TJSJ 201700
TAFJBQ
TAF
TJBQ 201722Z 2018/2118 07014G22KT P6SM VCSH SCT025 BKN045
      TEMPO 2018/2021 5SM SHRA BKN025
     FM202330 11005KT P6SM FEW025
     FM211330 06014KT P6SM SCT025=

USA.gov is the U.S. government's official web portal to all federal, state and local government web resources and services.